Time;durP1;ratioP1;P1;durP2;ratioP2;P2;SDS_P1;SDS_P2;PMS_P1;PMS_P2;Temp;Humidity;BMP_temperature;BMP_pressure;BME280_temperature;BME280_humidity;BME280_pressure;Samples;Min_cycle;Max_cycle;Signal;HPM_P1;HPM_P2
2022/09/21 00:00:33;;;;;;;8.90;5.55;;;8.10;99.90;;;6.90;100.00;98134.66;4992697;28;20398;-76
2022/09/21 00:03:00;;;;;;;9.38;5.35;;;8.10;99.90;;;6.89;100.00;98137.50;4992428;28;20640;-77
2022/09/21 00:05:26;;;;;;;10.13;5.35;;;8.10;99.90;;;6.92;100.00;98131.78;4992822;28;20417;-77
2022/09/21 00:07:53;;;;;;;8.73;5.30;;;8.10;99.90;;;6.86;100.00;98130.00;4992309;28;20421;-76
2022/09/21 00:10:19;;;;;;;8.30;5.20;;;8.10;99.90;;;6.82;100.00;98134.09;4992376;28;20513;-76
2022/09/21 00:12:47;;;;;;;7.80;5.20;;;8.00;99.90;;;6.81;100.00;98135.91;4989083;28;20940;-77
2022/09/21 00:15:16;;;;;;;7.63;5.45;;;8.00;99.90;;;6.79;100.00;98131.84;4987943;28;20944;-76
2022/09/21 00:17:43;;;;;;;11.15;5.93;;;8.00;99.90;;;6.80;100.00;98139.53;4991602;28;21043;-77
2022/09/21 00:20:09;;;;;;;8.88;5.25;;;8.00;99.90;;;6.78;100.00;98132.88;4991186;28;20481;-76
2022/09/21 00:22:36;;;;;;;8.85;4.97;;;8.00;99.90;;;6.77;100.00;98128.63;4991384;28;20410;-76
2022/09/21 00:25:05;;;;;;;10.25;5.13;;;8.00;99.90;;;6.73;100.00;98137.94;4991823;28;20406;-76
2022/09/21 00:27:31;;;;;;;8.20;5.20;;;7.90;99.90;;;6.69;100.00;98124.38;4991743;28;20416;-77
2022/09/21 00:30:00;;;;;;;10.07;5.18;;;7.90;99.90;;;6.71;100.00;98134.72;4992039;28;20807;-76
2022/09/21 00:32:26;;;;;;;6.03;4.90;;;7.90;99.90;;;6.69;100.00;98131.50;4992125;28;20768;-77
2022/09/21 00:34:52;;;;;;;9.63;5.28;;;7.90;99.90;;;6.69;100.00;98134.13;4991440;28;20410;-76
2022/09/21 00:37:18;;;;;;;8.52;5.22;;;7.90;99.90;;;6.70;100.00;98135.72;4991755;28;20411;-76
2022/09/21 00:39:45;;;;;;;8.18;5.32;;;7.90;99.90;;;6.69;100.00;98142.03;4992219;28;20402;-76
2022/09/21 00:42:17;;;;;;;8.65;5.68;;;7.90;99.90;;;6.66;100.00;98135.34;4992143;28;20403;-76
2022/09/21 00:44:43;;;;;;;12.00;5.40;;;7.90;99.90;;;6.67;100.00;98139.59;4991248;28;20543;-76
2022/09/21 00:47:13;;;;;;;12.35;5.15;;;7.90;99.90;;;6.69;100.00;98134.91;4991717;28;20492;-76
2022/09/21 00:49:41;;;;;;;8.63;4.93;;;7.90;99.90;;;6.63;100.00;98132.31;4991926;28;20429;-76
2022/09/21 00:52:09;;;;;;;8.10;5.38;;;7.80;99.90;;;6.57;100.00;98134.75;4991998;28;20446;-77
2022/09/21 00:54:40;;;;;;;8.98;5.38;;;7.80;99.90;;;6.57;100.00;98131.31;4990870;28;20442;-76
2022/09/21 00:57:07;;;;;;;11.30;5.60;;;7.80;99.90;;;6.53;100.00;98123.06;4991596;28;20402;-76
2022/09/21 00:59:37;;;;;;;8.82;5.57;;;7.70;99.90;;;6.53;100.00;98130.94;4991696;28;20402;-76
2022/09/21 01:02:03;;;;;;;12.13;5.45;;;7.70;99.90;;;6.55;100.00;98126.25;4990495;28;20410;-76
2022/09/21 01:04:30;;;;;;;8.38;5.40;;;7.80;99.90;;;6.54;100.00;98124.66;4990365;28;20942;-76
2022/09/21 01:07:02;;;;;;;8.60;5.28;;;7.70;99.90;;;6.49;100.00;98128.91;4991436;28;20395;-77
2022/09/21 01:09:28;;;;;;;9.20;5.97;;;7.70;99.90;;;6.45;100.00;98125.09;4991184;28;20422;-77
2022/09/21 01:12:14;;;;;;;9.43;6.10;;;7.60;99.90;;;6.42;100.00;98123.69;4991765;28;20407;-76
2022/09/21 01:15:26;;;;;;;7.22;5.50;;;7.60;99.90;;;6.42;100.00;98128.13;4990588;28;20515;-76
2022/09/21 01:18:00;;;;;;;10.07;5.35;;;7.70;99.90;;;6.41;100.00;98127.31;4990774;28;20797;-76
2022/09/21 01:21:07;;;;;;;8.00;5.40;;;7.60;99.90;;;6.39;100.00;98126.69;4990954;28;20520;-76
2022/09/21 01:24:01;;;;;;;15.20;5.95;;;7.60;99.90;;;6.38;100.00;98135.63;4975979;28;20456;-76
2022/09/21 01:26:45;;;;;;;11.23;5.75;;;7.60;99.90;;;6.38;100.00;98124.31;4991479;28;20403;-76
2022/09/21 01:29:19;;;;;;;7.43;5.60;;;7.60;99.90;;;6.34;100.00;98131.78;5006445;28;20503;-76
2022/09/21 01:31:53;;;;;;;10.65;5.30;;;7.60;99.90;;;6.35;100.00;98136.03;4991088;28;20399;-76
2022/09/21 01:34:28;;;;;;;7.32;5.07;;;7.60;99.90;;;6.30;100.00;98132.41;4988322;28;20422;-75
2022/09/21 01:36:58;;;;;;;8.38;5.85;;;7.50;99.90;;;6.30;100.00;98130.59;4984945;28;20954;-77
2022/09/21 01:39:28;;;;;;;7.90;5.53;;;7.50;99.90;;;6.28;100.00;98137.06;4988134;28;20784;-76
2022/09/21 01:41:55;;;;;;;9.13;6.30;;;7.50;99.90;;;6.25;100.00;98137.47;4990700;28;20497;-76
2022/09/21 01:44:27;;;;;;;10.30;5.85;;;7.50;99.90;;;6.27;100.00;98132.81;4989885;28;20428;-76
2022/09/21 01:46:55;;;;;;;8.07;5.88;;;7.50;99.90;;;6.24;100.00;98138.50;4990771;28;20402;-76
2022/09/21 01:49:28;;;;;;;12.47;6.33;;;7.40;99.90;;;6.18;100.00;98135.66;4990631;28;20883;-76
2022/09/21 01:52:00;;;;;;;10.40;6.10;;;7.40;99.90;;;6.17;100.00;98143.72;4990667;28;20406;-76
2022/09/21 01:54:36;;;;;;;8.15;6.13;;;7.40;99.90;;;6.14;100.00;98139.72;4989685;28;20920;-76
2022/09/21 01:57:10;;;;;;;9.80;6.80;;;7.40;99.90;;;6.13;100.00;98139.91;4990616;28;20420;-76
2022/09/21 01:59:48;;;;;;;11.18;6.40;;;7.40;99.90;;;6.14;100.00;98138.91;4990698;28;20413;-76
2022/09/21 02:02:19;;;;;;;13.18;5.90;;;7.40;99.90;;;6.14;100.00;98134.47;4990727;28;20430;-76
2022/09/21 02:04:45;;;;;;;9.05;5.97;;;7.40;99.90;;;6.06;100.00;98134.66;4989811;28;20410;-76
2022/09/21 02:07:11;;;;;;;9.88;6.15;;;7.30;99.90;;;6.03;100.00;98139.50;4991439;28;20437;-78
2022/09/21 02:09:37;;;;;;;10.55;5.97;;;7.30;99.90;;;6.01;100.00;98141.56;4990717;28;20568;-76
2022/09/21 02:12:04;;;;;;;9.43;6.38;;;7.20;99.90;;;6.02;100.00;98141.31;4990517;28;20406;-76
2022/09/21 02:14:32;;;;;;;13.75;7.53;;;7.20;99.90;;;5.98;100.00;98137.50;4989858;28;20433;-76
2022/09/21 02:17:13;;;;;;;8.90;6.37;;;7.20;99.90;;;5.97;100.00;98135.88;4990402;28;20441;-76
2022/09/21 02:19:49;;;;;;;12.30;6.38;;;7.20;99.90;;;5.94;100.00;98127.59;4988915;23;20473;-75
2022/09/21 02:22:28;;;;;;;9.00;6.82;;;7.20;99.90;;;5.95;100.00;98135.25;5047577;28;20730;-75
2022/09/21 02:25:02;;;;;;;12.03;6.30;;;7.20;99.90;;;5.99;100.00;98135.69;5038957;28;20487;-75
2022/09/21 02:27:37;;;;;;;12.02;7.05;;;7.20;99.90;;;5.93;100.00;98131.25;5047051;28;20405;-74
2022/09/21 02:30:08;;;;;;;11.95;7.03;;;7.20;99.90;;;5.88;100.00;98126.56;5049211;28;20466;-75
2022/09/21 02:32:45;;;;;;;11.60;7.05;;;7.10;99.90;;;5.90;100.00;98129.00;5047404;28;20479;-76
2022/09/21 02:35:18;;;;;;;11.55;6.97;;;7.10;99.90;;;5.87;100.00;98134.63;5048748;28;20592;-75
2022/09/21 02:37:48;;;;;;;11.15;7.28;;;7.10;99.90;;;5.84;100.00;98123.53;5049427;28;20815;-76
2022/09/21 02:40:28;;;;;;;10.93;7.15;;;7.10;99.90;;;5.83;100.00;98119.28;5049309;28;20449;-74
2022/09/21 02:42:59;;;;;;;10.32;6.25;;;7.10;99.90;;;5.81;100.00;98120.50;5048512;28;20809;-76
2022/09/21 02:45:29;;;;;;;10.48;7.05;;;7.10;99.90;;;5.79;100.00;98127.75;5048919;28;20413;-75
2022/09/21 02:48:02;;;;;;;10.77;6.20;;;7.00;99.90;;;5.75;100.00;98130.00;5048957;28;20515;-75
2022/09/21 02:50:34;;;;;;;9.90;6.93;;;7.00;99.90;;;5.72;100.00;98125.13;5049153;28;20424;-75
2022/09/21 02:53:03;;;;;;;9.93;7.15;;;7.00;99.90;;;5.72;100.00;98119.06;5048974;28;20466;-76
2022/09/21 02:55:30;;;;;;;14.32;7.28;;;7.00;99.90;;;5.74;100.00;98124.94;5048276;28;20559;-75
2022/09/21 02:57:56;;;;;;;13.40;7.68;;;7.00;99.90;;;5.79;100.00;98122.50;5056987;28;20409;-76
2022/09/21 03:00:22;;;;;;;11.43;6.67;;;7.00;99.90;;;5.70;100.00;98129.78;5049276;28;20413;-76
2022/09/21 03:02:48;;;;;;;9.63;6.72;;;7.00;99.90;;;5.65;100.00;98121.69;5060312;28;20462;-75
2022/09/21 03:05:15;;;;;;;11.18;7.50;;;6.90;99.90;;;5.63;100.00;98118.47;5068432;28;20414;-75
2022/09/21 03:07:41;;;;;;;10.75;7.50;;;6.90;99.90;;;5.60;100.00;98124.13;5068873;28;20453;-75
2022/09/21 03:10:08;;;;;;;13.55;8.02;;;6.90;99.90;;;5.60;100.00;98124.13;5069069;28;20415;-75
2022/09/21 03:12:35;;;;;;;14.00;7.88;;;6.80;99.90;;;5.61;100.00;98117.88;5045753;28;20451;-75
2022/09/21 03:15:01;;;;;;;13.80;7.35;;;6.90;99.90;;;5.62;100.00;98121.31;5038987;28;20399;-75
2022/09/21 03:17:27;;;;;;;13.68;7.63;;;6.80;99.90;;;5.62;100.00;98119.50;5046412;28;20421;-75
2022/09/21 03:19:53;;;;;;;15.15;8.25;;;6.90;99.90;;;5.61;100.00;98119.69;5048770;28;20898;-75
2022/09/21 03:22:21;;;;;;;11.05;8.07;;;6.90;99.90;;;5.58;100.00;98123.50;5048366;28;20759;-74
2022/09/21 03:24:47;;;;;;;10.85;7.43;;;6.90;99.90;;;5.57;100.00;98124.50;5047962;28;20442;-76
2022/09/21 03:27:15;;;;;;;11.70;8.32;;;6.80;99.90;;;5.55;100.00;98129.19;5048868;28;20402;-75
2022/09/21 03:29:41;;;;;;;13.90;8.43;;;6.80;99.90;;;5.55;100.00;98131.00;5048699;28;20424;-74
2022/09/21 03:32:07;;;;;;;12.67;8.97;;;6.80;99.90;;;5.54;100.00;98130.19;5042468;28;20417;-74
2022/09/21 03:34:33;;;;;;;14.05;9.23;;;6.80;99.90;;;5.54;100.00;98140.69;5046364;28;20484;-75
2022/09/21 03:36:59;;;;;;;17.70;10.13;;;6.80;99.90;;;5.51;100.00;98138.44;5048679;28;20551;-74
2022/09/21 03:39:26;;;;;;;15.77;9.57;;;6.80;99.90;;;5.53;100.00;98138.25;5048768;28;20496;-74
2022/09/21 03:41:55;;;;;;;15.87;10.43;;;6.80;99.90;;;5.49;100.00;98147.56;5048185;28;20435;-74
2022/09/21 03:44:21;;;;;;;18.10;11.53;;;6.70;99.90;;;5.48;100.00;98140.69;5048212;28;20487;-75
2022/09/21 03:46:47;;;;;;;18.00;11.45;;;6.70;99.90;;;5.47;100.00;98144.31;5048480;28;20409;-76
2022/09/21 03:49:13;;;;;;;20.83;11.20;;;6.70;99.90;;;5.45;100.00;98147.94;5044261;28;20792;-76
2022/09/21 03:51:39;;;;;;;24.33;13.00;;;6.70;99.90;;;5.48;100.00;98143.31;5047098;28;20433;-76
2022/09/21 03:54:06;;;;;;;24.55;13.63;;;6.70;99.90;;;5.46;100.00;98138.25;5047033;28;20413;-76
2022/09/21 03:56:33;;;;;;;26.40;14.53;;;6.70;99.90;;;5.47;100.00;98134.63;5048594;28;20433;-76
2022/09/21 03:58:59;;;;;;;22.60;13.80;;;6.70;99.90;;;5.46;100.00;98143.50;5049813;28;20428;-76
2022/09/21 04:01:25;;;;;;;19.83;13.40;;;6.70;99.90;;;5.45;100.00;98136.63;5050560;28;20402;-77
2022/09/21 04:03:51;;;;;;;21.33;13.45;;;6.70;99.90;;;5.42;100.00;98135.19;5048787;28;21268;-77
2022/09/21 04:06:17;;;;;;;21.58;12.57;;;6.70;99.90;;;5.41;100.00;98144.09;5052136;28;20409;-77
2022/09/21 04:08:43;;;;;;;20.95;12.23;;;6.70;99.90;;;5.40;100.00;98141.69;5051712;28;20444;-76
2022/09/21 04:11:10;;;;;;;16.60;11.23;;;6.70;99.90;;;5.38;100.00;98141.06;5051683;28;20471;-76
2022/09/21 04:13:37;;;;;;;21.27;12.10;;;6.60;99.90;;;5.38;100.00;98151.56;5051655;28;20413;-77
2022/09/21 04:16:04;;;;;;;17.85;11.57;;;6.60;99.90;;;5.34;100.00;98150.31;5052020;28;20409;-77
2022/09/21 04:18:31;;;;;;;17.63;11.13;;;6.60;99.90;;;5.35;100.00;98146.69;5050808;28;20408;-76
2022/09/21 04:20:57;;;;;;;24.63;12.57;;;6.50;99.90;;;5.38;100.00;98157.63;5050978;28;20401;-76
2022/09/21 04:23:22;;;;;;;18.40;12.00;;;6.60;99.90;;;5.37;100.00;98150.75;5051191;28;20951;-76
2022/09/21 04:25:51;;;;;;;25.02;12.85;;;6.60;99.90;;;5.35;100.00;98154.56;5051516;28;20496;-75
2022/09/21 04:28:17;;;;;;;21.95;12.27;;;6.60;99.90;;;5.32;100.00;98152.38;5050925;28;20449;-76
2022/09/21 04:30:45;;;;;;;17.33;11.48;;;6.60;99.90;;;5.29;100.00;98152.75;5051073;28;20445;-75
2022/09/21 04:33:11;;;;;;;23.03;12.27;;;6.60;99.90;;;5.27;100.00;98165.25;5050635;28;20496;-75
2022/09/21 04:35:37;;;;;;;23.02;12.45;;;6.50;99.90;;;5.25;100.00;98156.78;5050982;28;20431;-75
2022/09/21 04:38:03;;;;;;;20.33;12.60;;;6.50;99.90;;;5.24;100.00;98157.78;5051018;28;20415;-76
2022/09/21 04:40:30;;;;;;;21.80;14.10;;;6.50;99.90;;;5.23;100.00;98162.22;5047573;28;20417;-75
2022/09/21 04:42:56;;;;;;;27.50;13.70;;;6.50;99.90;;;5.22;100.00;98165.84;5041419;28;20965;-75
2022/09/21 04:45:23;;;;;;;24.20;14.07;;;6.50;99.90;;;5.22;100.00;98167.66;5049724;28;20492;-75
2022/09/21 04:47:50;;;;;;;21.83;13.07;;;6.50;99.90;;;5.20;100.00;98169.69;5050931;28;20411;-75
2022/09/21 04:50:16;;;;;;;22.98;13.40;;;6.50;99.90;;;5.15;100.00;98175.53;5051246;28;20828;-75
2022/09/21 04:52:42;;;;;;;23.65;13.63;;;6.40;99.90;;;5.13;100.00;98169.66;5050917;28;20408;-76
2022/09/21 04:55:08;;;;;;;24.67;14.48;;;6.40;99.90;;;5.13;100.00;98174.91;5050523;28;21190;-75
2022/09/21 04:57:34;;;;;;;24.17;13.50;;;6.40;99.90;;;5.14;100.00;98175.72;5050028;28;20447;-75
2022/09/21 05:00:01;;;;;;;27.95;15.15;;;6.40;99.90;;;5.09;100.00;98176.31;5051284;28;21151;-75
2022/09/21 05:02:27;;;;;;;25.17;14.40;;;6.30;99.90;;;5.11;100.00;98178.75;5051172;28;20865;-75
2022/09/21 05:04:54;;;;;;;25.57;15.20;;;6.40;99.90;;;5.11;100.00;98181.38;5050358;28;20440;-76
2022/09/21 05:07:20;;;;;;;23.55;14.77;;;6.40;99.90;;;5.10;100.00;98182.38;5049980;28;20464;-76
2022/09/21 05:10:04;;;;;;;23.77;14.30;;;6.30;99.90;;;5.06;100.00;98181.94;5047364;28;20538;-76
2022/09/21 05:12:33;;;;;;;24.17;15.40;;;6.30;99.90;;;5.03;100.00;98177.91;5045308;28;20446;-78
2022/09/21 05:15:02;;;;;;;23.63;15.18;;;6.30;99.90;;;5.07;100.00;98183.56;5044527;28;20434;-76
2022/09/21 05:17:28;;;;;;;25.90;14.75;;;6.30;99.90;;;5.05;100.00;98186.38;5048364;28;20834;-77
2022/09/21 05:19:56;;;;;;;23.67;14.85;;;6.30;99.90;;;5.04;100.00;98189.19;5047464;28;20459;-77
2022/09/21 05:22:22;;;;;;;27.67;14.55;;;6.30;99.90;;;5.05;100.00;98190.81;5049554;28;20389;-75
2022/09/21 05:24:48;;;;;;;24.13;15.10;;;6.30;99.90;;;5.04;100.00;98189.19;5047085;28;20413;-76
2022/09/21 05:27:15;;;;;;;26.05;15.30;;;6.30;99.90;;;5.07;100.00;98188.81;5049397;28;20402;-77
2022/09/21 05:29:41;;;;;;;23.77;14.60;;;6.30;99.90;;;5.05;100.00;98185.56;5048490;28;20425;-76
2022/09/21 05:32:17;;;;;;;25.42;15.57;;;6.30;99.90;;;5.03;100.00;98185.78;5049544;28;20498;-76
2022/09/21 05:35:00;;;;;;;21.83;14.63;;;6.30;99.90;;;5.04;100.00;98189.19;5048450;28;20483;-75
2022/09/21 05:37:49;;;;;;;28.40;16.73;;;6.30;99.90;;;5.07;100.00;98184.38;5047644;28;20960;-76
2022/09/21 05:40:16;;;;;;;27.20;16.38;;;6.30;99.90;;;5.06;100.00;98185.38;5048655;28;20431;-76
2022/09/21 05:42:48;;;;;;;28.50;16.58;;;6.30;99.90;;;5.06;100.00;98192.44;5045248;28;20432;-76
2022/09/21 05:45:17;;;;;;;26.77;15.50;;;6.30;99.90;;;5.09;100.00;98192.06;5042405;28;20462;-75
2022/09/21 05:47:55;;;;;;;26.95;17.30;;;6.30;99.90;;;5.09;100.00;98188.63;5048172;28;20398;-77
2022/09/21 05:50:41;;;;;;;24.05;17.52;;;6.40;99.90;;;5.10;100.00;98193.69;5048327;28;20526;-76
2022/09/21 05:53:39;;;;;;;29.90;18.77;;;6.30;99.90;;;5.12;100.00;98194.28;5046910;28;20439;-76
2022/09/21 05:56:15;;;;;;;27.93;18.00;;;6.40;99.90;;;5.13;100.00;98197.72;5047207;28;20467;-76
2022/09/21 05:58:56;;;;;;;27.13;17.55;;;6.40;99.90;;;5.15;100.00;98196.53;5046279;28;20434;-75
2022/09/21 06:01:40;;;;;;;30.50;17.77;;;6.40;99.90;;;5.19;100.00;98200.34;5045438;28;20418;-75
2022/09/21 06:04:09;;;;;;;31.90;17.65;;;6.40;99.90;;;5.24;100.00;98200.59;5046319;28;21171;-74
2022/09/21 06:06:36;;;;;;;27.00;17.27;;;6.50;99.90;;;5.26;100.00;98189.91;5048823;28;20508;-76
2022/09/21 06:09:02;;;;;;;28.25;16.88;;;6.50;99.90;;;5.29;100.00;98200.00;5044351;28;20472;-82
2022/09/21 06:11:28;;;;;;;28.07;16.83;;;6.50;99.90;;;5.31;100.00;98205.88;5045855;28;20425;-81
2022/09/21 06:13:54;;;;;;;24.05;16.35;;;6.50;99.90;;;5.35;100.00;98199.19;5045858;28;20414;-83
2022/09/21 06:16:20;;;;;;;23.07;15.80;;;6.50;99.90;;;5.38;100.00;98199.63;5049958;28;20445;-77
2022/09/21 06:18:46;;;;;;;26.80;15.88;;;6.60;99.90;;;5.42;100.00;98208.72;5041569;28;20419;-79
2022/09/21 06:21:12;;;;;;;30.73;16.67;;;6.60;99.90;;;5.45;100.00;98210.16;5035401;28;20454;-75
2022/09/21 06:23:40;;;;;;;27.25;16.05;;;6.70;99.90;;;5.52;100.00;98210.16;5035995;28;20410;-74
2022/09/21 06:26:05;;;;;;;27.55;15.82;;;6.70;99.90;;;5.55;100.00;98207.97;5033905;28;20440;-75
2022/09/21 06:28:31;;;;;;;25.52;15.73;;;6.70;99.90;;;5.60;100.00;98210.78;5044257;28;20429;-77
2022/09/21 06:30:57;;;;;;;22.38;14.98;;;6.80;99.90;;;5.65;100.00;98207.56;5044107;28;20458;-78
2022/09/21 06:33:24;;;;;;;27.25;15.98;;;6.80;99.90;;;5.70;100.00;98215.66;5038219;28;21056;-77
2022/09/21 06:35:54;;;;;;;27.50;16.05;;;6.90;99.90;;;5.75;100.00;98207.97;5042849;28;20408;-77
2022/09/21 06:38:21;;;;;;;23.25;15.55;;;6.90;99.90;;;5.81;100.00;98212.44;5036945;28;21208;-76
2022/09/21 06:40:49;;;;;;;26.52;16.90;;;7.00;99.90;;;5.90;100.00;98215.72;5047415;28;20406;-76
2022/09/21 06:43:15;;;;;;;26.40;16.45;;;7.00;99.90;;;5.96;100.00;98214.91;5046868;28;20401;-76
2022/09/21 06:45:41;;;;;;;24.10;15.60;;;7.10;99.90;;;6.03;100.00;98215.72;5029516;28;21262;-76
2022/09/21 06:48:08;;;;;;;29.25;15.98;;;7.20;99.90;;;6.09;100.00;98218.34;5047941;28;20409;-75
2022/09/21 06:50:34;;;;;;;24.50;16.08;;;7.20;99.90;;;6.17;100.00;98218.16;5048455;28;20420;-76
2022/09/21 06:53:01;;;;;;;26.77;16.35;;;7.30;99.90;;;6.24;100.00;98215.50;5048117;28;20469;-75
2022/09/21 06:55:28;;;;;;;25.00;16.00;;;7.40;99.90;;;6.33;100.00;98209.03;5045334;28;20433;-75
2022/09/21 06:58:00;;;;;;;24.33;15.52;;;7.40;99.90;;;6.42;100.00;98213.09;5038156;28;20405;-76
2022/09/21 07:00:26;;;;;;;23.95;15.10;;;7.50;99.90;;;6.49;100.00;98215.72;5055435;28;20424;-76
2022/09/21 07:02:52;;;;;;;24.93;15.53;;;7.60;99.90;;;6.53;100.00;98212.47;5061698;28;20412;-76
2022/09/21 07:05:18;;;;;;;24.45;15.57;;;7.60;99.90;;;6.59;100.00;98210.84;5030868;28;20417;-76
2022/09/21 07:07:44;;;;;;;26.83;15.38;;;7.70;99.90;;;6.62;100.00;98213.03;5040131;28;20427;-76
2022/09/21 07:10:10;;;;;;;22.67;14.90;;;7.70;99.90;;;6.68;100.00;98212.25;5029127;28;20436;-76
2022/09/21 07:12:36;;;;;;;24.48;14.60;;;7.80;99.90;;;6.74;100.00;98215.88;5028593;28;20869;-80
2022/09/21 07:15:06;;;;;;;24.83;15.00;;;7.80;99.90;;;6.79;100.00;98216.88;5028620;28;20403;-82
2022/09/21 07:17:32;;;;;;;24.73;14.65;;;7.90;99.90;;;6.86;100.00;98214.22;5045731;28;20405;-89
2022/09/21 07:19:59;;;;;;;28.58;14.93;;;7.90;99.90;;;6.91;100.00;98214.41;5049459;28;20400;-83
2022/09/21 07:22:27;;;;;;;25.45;14.85;;;8.00;99.90;;;6.97;100.00;98217.03;5048601;28;20433;-83
2022/09/21 07:24:53;;;;;;;27.73;15.55;;;8.00;99.90;;;7.05;100.00;98217.81;5048743;28;20405;-86
2022/09/21 07:27:19;;;;;;;27.00;14.50;;;8.10;99.90;;;7.11;100.00;98214.34;5049262;28;20432;-86
2022/09/21 07:29:45;;;;;;;25.20;14.30;;;8.20;99.90;;;7.16;100.00;98217.16;5051795;28;20417;-78
2022/09/21 07:32:13;;;;;;;24.15;13.02;;;8.20;99.90;;;7.20;100.00;98221.00;5052301;28;20919;-77
2022/09/21 07:34:39;;;;;;;19.55;12.50;;;8.30;99.90;;;7.26;100.00;98220.16;5045317;28;20415;-76
2022/09/21 07:37:05;;;;;;;19.65;11.32;;;8.30;99.90;;;7.32;100.00;98221.94;5052893;28;20479;-86
2022/09/21 07:39:31;;;;;;;21.63;11.45;;;8.40;99.90;;;7.37;100.00;98222.94;5052670;28;20433;-76
2022/09/21 07:41:59;;;;;;;19.45;11.07;;;8.40;99.90;;;7.43;100.00;98220.50;5052436;28;20930;-81
2022/09/21 07:44:25;;;;;;;18.42;10.98;;;8.50;99.90;;;7.51;100.00;98228.16;5052241;28;20488;-80
2022/09/21 07:46:51;;;;;;;20.77;11.87;;;8.60;99.90;;;7.58;100.00;98221.03;5052964;28;20464;-83
2022/09/21 07:49:19;;;;;;;14.95;10.68;;;8.60;99.90;;;7.66;100.00;98224.22;5052310;28;20832;-84
2022/09/21 07:51:45;;;;;;;16.37;11.13;;;8.70;99.90;;;7.76;100.00;98224.53;5053080;28;20484;-90
2022/09/21 07:54:12;;;;;;;17.50;11.10;;;8.80;99.90;;;7.85;100.00;98232.19;5052970;28;20405;-87
2022/09/21 07:56:38;;;;;;;17.08;11.30;;;8.90;99.90;;;7.93;100.00;98224.03;5052494;28;20428;-82
2022/09/21 07:59:06;;;;;;;17.45;11.18;;;8.90;99.90;;;8.03;100.00;98227.03;5051879;28;20401;-82
2022/09/21 08:01:34;;;;;;;14.80;9.23;;;9.00;99.90;;;8.13;100.00;98227.34;5054970;28;20416;-85
2022/09/21 08:04:04;;;;;;;13.60;9.55;;;9.10;99.90;;;8.26;100.00;98227.25;5057448;28;20406;-85
2022/09/21 08:06:34;;;;;;;18.73;9.40;;;9.20;99.90;;;8.36;100.00;98232.84;5052154;28;20767;-82
2022/09/21 08:09:00;;;;;;;15.40;8.43;;;9.30;99.90;;;8.42;100.00;98229.34;5053252;28;20397;-89
2022/09/21 08:11:29;;;;;;;14.38;8.25;;;9.40;99.90;;;8.53;100.00;98225.22;5051931;28;20424;-84
2022/09/21 08:13:58;;;;;;;13.43;8.35;;;9.50;99.90;;;8.62;100.00;98231.03;5051346;28;20447;-84
2022/09/21 08:16:25;;;;;;;12.18;8.25;;;9.60;99.90;;;8.75;100.00;98229.06;5050382;28;20891;-85
2022/09/21 08:18:51;;;;;;;11.82;7.47;;;9.70;99.90;;;8.80;100.00;98231.03;5051419;28;20813;-83
2022/09/21 08:21:19;;;;;;;10.27;6.68;;;9.80;99.90;;;8.87;100.00;98237.06;5065598;22;20512;-78
2022/09/21 08:23:48;;;;;;;13.50;7.00;;;9.80;99.90;;;8.96;100.00;98238.38;5050587;28;20956;-80
2022/09/21 08:26:20;;;;;;;17.38;7.30;;;9.90;99.90;;;9.02;100.00;98234.06;5050460;28;20419;-78
2022/09/21 08:28:48;;;;;;;14.93;6.70;;;10.00;99.90;;;9.09;100.00;98235.63;5043172;28;20425;-78
2022/09/21 08:31:16;;;;;;;9.60;5.95;;;10.10;99.90;;;9.15;100.00;98234.72;5046971;28;20431;-80
2022/09/21 08:33:42;;;;;;;13.23;6.30;;;10.10;99.90;;;9.25;100.00;98242.13;5031455;28;21023;-80
2022/09/21 08:36:08;;;;;;;10.15;6.07;;;10.20;99.90;;;9.27;100.00;98232.13;5031403;28;20497;-82
2022/09/21 08:38:36;;;;;;;10.40;6.00;;;10.20;99.90;;;9.32;100.00;98234.94;5031229;28;20818;-79
2022/09/21 08:41:16;;;;;;;10.02;5.72;;;10.30;99.90;;;9.44;100.00;98233.16;5030945;28;20800;-78
2022/09/21 08:43:44;;;;;;;10.35;5.78;;;10.40;99.90;;;9.49;100.00;98232.47;5031117;28;20903;-80
2022/09/21 08:46:14;;;;;;;11.00;5.90;;;10.40;99.90;;;9.57;100.00;98237.47;5031104;28;20490;-79
2022/09/21 08:48:45;;;;;;;9.93;5.63;;;10.50;99.90;;;9.64;100.00;98244.28;5031211;28;20468;-82
2022/09/21 08:51:20;;;;;;;8.02;4.50;;;10.60;99.90;;;9.69;100.00;98239.13;5032037;28;20434;-80
2022/09/21 08:53:50;;;;;;;9.57;4.47;;;10.60;99.90;;;9.75;100.00;98239.25;5031858;28;20395;-84
2022/09/21 08:56:19;;;;;;;8.32;4.55;;;10.70;99.90;;;9.91;100.00;98231.50;5032037;28;20482;-80
2022/09/21 08:58:45;;;;;;;6.18;4.05;;;10.80;99.90;;;10.04;100.00;98226.00;5032161;28;20419;-74
2022/09/21 09:01:32;;;;;;;8.63;4.72;;;10.90;99.90;;;10.08;100.00;98229.00;5031946;28;20424;-80
2022/09/21 09:04:28;;;;;;;10.05;4.50;;;11.00;99.90;;;10.15;100.00;98223.63;5031664;28;20876;-77
2022/09/21 09:07:08;;;;;;;5.78;3.72;;;11.10;99.90;;;10.28;100.00;98226.91;5031883;28;20489;-75
2022/09/21 09:10:16;;;;;;;7.75;4.85;;;11.20;99.90;;;10.33;100.00;98229.66;5029395;28;20920;-84
2022/09/21 09:12:56;;;;;;;10.15;5.20;;;11.20;99.90;;;10.37;100.00;98224.72;5026069;28;20521;-83
2022/09/21 09:15:52;;;;;;;9.80;4.90;;;11.30;99.90;;;10.47;100.00;98225.75;5028458;28;20480;-76
2022/09/21 09:18:28;;;;;;;7.68;4.13;;;11.30;99.90;;;10.60;100.00;98219.41;5011524;28;20446;-79
2022/09/21 09:20:57;;;;;;;10.00;4.33;;;11.50;99.90;;;10.63;100.00;98221.63;5004385;28;20398;-77
2022/09/21 09:23:27;;;;;;;7.97;4.00;;;11.50;99.90;;;10.79;100.00;98220.13;4991634;28;20414;-81
2022/09/21 09:26:00;;;;;;;7.47;3.80;;;11.60;99.90;;;10.88;100.00;98221.38;5010121;28;20424;-78
2022/09/21 09:28:34;;;;;;;8.05;3.97;;;11.70;99.90;;;10.95;100.00;98215.94;5018860;28;20509;-87
2022/09/21 09:31:09;;;;;;;8.60;4.00;;;11.80;99.90;;;11.09;100.00;98209.34;5019560;28;20417;-78
2022/09/21 09:33:48;;;;;;;8.03;4.20;;;11.90;99.90;;;10.90;100.00;98215.84;5026856;28;20391;-79
2022/09/21 09:36:15;;;;;;;5.97;2.85;;;11.80;99.90;;;10.96;100.00;98210.44;5010913;28;20412;-76
2022/09/21 09:38:49;;;;;;;4.82;2.75;;;11.80;99.90;;;11.10;100.00;98208.31;5011437;28;20420;-79
2022/09/21 09:42:16;;;;;;;6.03;3.00;;;12.00;99.90;;;11.22;100.00;98204.59;5011517;28;20423;-81
2022/09/21 09:45:18;;;;;;;5.82;2.90;;;12.10;99.90;;;11.40;100.00;98208.13;5011210;28;20503;-78
2022/09/21 09:48:01;;;;;;;5.43;2.93;;;12.20;99.90;;;11.46;100.00;98207.16;4999590;28;20416;-75
2022/09/21 09:50:31;;;;;;;5.50;2.80;;;12.30;99.90;;;11.61;100.00;98208.25;5011816;28;20416;-77
2022/09/21 09:53:03;;;;;;;4.43;2.85;;;12.40;99.90;;;11.81;100.00;98207.84;5021400;28;20415;-84
2022/09/21 09:55:37;;;;;;;6.20;2.83;;;12.60;99.90;;;11.99;100.00;98202.34;5027272;28;20491;-77
2022/09/21 09:58:03;;;;;;;4.50;2.65;;;12.80;99.90;;;12.14;100.00;98190.38;5011254;28;20406;-80
2022/09/21 10:00:31;;;;;;;6.90;2.53;;;12.90;99.90;;;12.25;100.00;98194.81;5008464;28;20755;-78
2022/09/21 10:02:58;;;;;;;5.60;2.40;;;13.00;99.90;;;12.36;100.00;98186.75;5010197;28;20474;-81
2022/09/21 10:05:32;;;;;;;5.27;2.30;;;13.10;99.90;;;12.41;100.00;98194.78;5011622;28;20405;-79
2022/09/21 10:07:59;;;;;;;6.53;2.50;;;13.20;99.90;;;12.50;100.00;98195.16;5011300;28;20389;-84
2022/09/21 10:10:34;;;;;;;6.63;2.33;;;13.30;99.90;;;12.48;100.00;98178.66;5010865;28;20417;-77
2022/09/21 10:13:13;;;;;;;3.88;2.20;;;13.30;99.90;;;12.52;100.00;98186.97;5010666;28;20454;-80
2022/09/21 10:15:48;;;;;;;4.82;2.25;;;13.30;99.90;;;12.55;100.00;98186.50;5011008;28;20492;-79
2022/09/21 10:18:19;;;;;;;4.13;2.20;;;13.30;99.90;;;12.58;100.00;98186.78;5011244;28;20404;-80
2022/09/21 10:20:58;;;;;;;4.60;2.40;;;13.40;99.90;;;12.70;100.00;98187.50;5010713;28;20409;-82
2022/09/21 10:23:25;;;;;;;3.85;2.20;;;13.40;99.90;;;12.84;100.00;98182.66;5010770;28;20756;-81
2022/09/21 10:26:00;;;;;;;4.00;2.17;;;13.50;99.90;;;12.83;98.94;98180.22;5010840;28;20401;-79
2022/09/21 10:28:27;;;;;;;2.47;1.80;;;13.60;99.90;;;12.95;98.28;98178.25;5011090;28;20397;-80